createdAt,value
2019-04-26T00:01:52.861Z,12.20
2019-04-26T00:04:22.592Z,12.20
2019-04-26T00:06:51.869Z,12.20
2019-04-26T00:09:25.800Z,12.20
2019-04-26T00:12:24.783Z,12.20
2019-04-26T00:15:10.091Z,12.20
2019-04-26T00:17:44.764Z,12.10
2019-04-26T00:20:14.883Z,12.00
2019-04-26T00:22:44.352Z,11.90
2019-04-26T00:25:14.426Z,11.80
2019-04-26T00:27:44.014Z,11.70
2019-04-26T00:30:14.842Z,11.70
2019-04-26T00:32:44.281Z,11.70
2019-04-26T00:35:14.049Z,11.60
2019-04-26T00:37:44.920Z,11.60
2019-04-26T00:40:14.393Z,11.50
2019-04-26T00:42:45.656Z,11.50
2019-04-26T00:45:15.206Z,11.50
2019-04-26T00:47:45.434Z,11.40
2019-04-26T00:50:15.456Z,11.40
2019-04-26T00:52:45.812Z,11.40
2019-04-26T00:55:15.657Z,11.30
2019-04-26T00:57:45.956Z,11.20
2019-04-26T01:00:18.138Z,11.20
2019-04-26T01:02:51.281Z,11.10
2019-04-26T01:05:28.369Z,11.00
2019-04-26T01:07:59.044Z,11.00
2019-04-26T01:10:34.064Z,11.00
2019-04-26T01:13:03.267Z,11.00
2019-04-26T01:15:37.994Z,11.00
2019-04-26T01:18:07.284Z,11.10
2019-04-26T01:20:37.593Z,11.00
2019-04-26T01:23:09.458Z,11.00
2019-04-26T01:25:55.652Z,11.00
2019-04-26T01:28:59.426Z,11.10
2019-04-26T01:31:32.134Z,11.10
2019-04-26T01:34:03.811Z,11.20
2019-04-26T01:36:34.444Z,11.20
2019-04-26T01:39:18.273Z,11.30
2019-04-26T01:42:05.075Z,11.30
2019-04-26T01:45:14.531Z,11.20
2019-04-26T01:47:49.845Z,11.10
2019-04-26T01:50:23.482Z,11.10
2019-04-26T01:52:58.678Z,11.10
2019-04-26T01:55:32.568Z,11.00
2019-04-26T01:58:15.191Z,11.00
2019-04-26T02:01:02.148Z,10.90
2019-04-26T02:03:35.725Z,10.90
2019-04-26T02:06:07.169Z,10.90
2019-04-26T02:08:47.747Z,10.90
2019-04-26T02:11:25.059Z,10.90
2019-04-26T02:13:53.308Z,10.80
2019-04-26T02:16:23.634Z,10.80
2019-04-26T02:18:53.139Z,10.80
2019-04-26T02:21:32.283Z,10.90
2019-04-26T02:24:30.138Z,10.90
2019-04-26T02:27:01.555Z,10.90
2019-04-26T02:29:31.253Z,11.00
2019-04-26T02:32:04.355Z,11.00
2019-04-26T02:34:37.862Z,11.00
2019-04-26T02:37:09.590Z,10.90
2019-04-26T02:39:42.038Z,10.90
2019-04-26T02:42:35.893Z,10.80
2019-04-26T02:45:28.900Z,10.80
2019-04-26T02:48:19.956Z,10.80
2019-04-26T02:50:55.402Z,10.80
2019-04-26T02:53:42.598Z,10.90
2019-04-26T02:56:26.204Z,10.90
2019-04-26T02:59:36.379Z,11.00
2019-04-26T03:02:09.050Z,11.00
2019-04-26T03:04:41.382Z,11.10
2019-04-26T03:07:18.645Z,11.10
2019-04-26T03:09:51.336Z,11.20
2019-04-26T03:12:24.631Z,11.20
2019-04-26T03:15:15.773Z,11.30
2019-04-26T03:18:12.019Z,11.40
2019-04-26T03:20:44.303Z,11.40
2019-04-26T03:23:59.058Z,11.40
2019-04-26T03:26:48.273Z,11.40
2019-04-26T03:29:43.806Z,11.40
2019-04-26T03:32:50.760Z,11.40
2019-04-26T03:35:37.032Z,11.40
2019-04-26T03:38:39.657Z,11.50
2019-04-26T03:41:26.561Z,11.50
2019-04-26T03:44:07.277Z,11.50
2019-04-26T03:46:56.960Z,11.50
2019-04-26T03:50:06.389Z,11.50
2019-04-26T03:53:23.155Z,11.40
2019-04-26T03:56:11.775Z,11.30
2019-04-26T03:59:25.392Z,11.30
2019-04-26T04:02:25.094Z,11.30
2019-04-26T04:05:09.452Z,11.30
2019-04-26T04:07:45.983Z,11.30
2019-04-26T04:10:17.671Z,11.40
2019-04-26T04:13:14.720Z,11.30
2019-04-26T04:15:48.509Z,11.40
2019-04-26T04:18:23.113Z,11.40
2019-04-26T04:21:39.279Z,11.50
2019-04-26T04:24:11.847Z,11.40
2019-04-26T04:27:11.226Z,11.40
2019-04-26T04:29:54.974Z,11.40
2019-04-26T04:32:43.843Z,11.40
2019-04-26T04:35:15.429Z,11.50
2019-04-26T04:38:07.766Z,11.50
2019-04-26T04:40:49.006Z,11.50
2019-04-26T04:43:45.175Z,11.50
2019-04-26T04:47:00.553Z,11.50
2019-04-26T04:50:19.100Z,11.60
2019-04-26T04:53:49.770Z,11.70
2019-04-26T04:57:01.292Z,11.70
2019-04-26T04:59:40.324Z,11.70
2019-04-26T05:02:42.424Z,11.70
2019-04-26T05:05:49.577Z,11.80
2019-04-26T05:08:44.427Z,11.80
2019-04-26T05:11:22.046Z,11.90
2019-04-26T05:14:38.681Z,11.90
2019-04-26T05:17:23.319Z,12.00
2019-04-26T05:20:15.812Z,12.00
2019-04-26T05:23:51.077Z,12.00
2019-04-26T05:27:03.703Z,12.00
2019-04-26T05:30:15.796Z,12.10
2019-04-26T05:33:00.063Z,12.10
2019-04-26T05:35:49.021Z,12.10
2019-04-26T05:38:57.597Z,12.20
2019-04-26T05:42:11.829Z,12.20
2019-04-26T05:45:50.367Z,12.30
2019-04-26T05:49:00.331Z,12.20
2019-04-26T05:52:04.339Z,12.10
2019-04-26T05:55:11.757Z,12.20
2019-04-26T05:58:34.506Z,12.20
2019-04-26T06:02:02.071Z,12.20
2019-04-26T06:04:49.093Z,12.30
2019-04-26T06:07:52.248Z,12.30
2019-04-26T06:10:38.452Z,12.30
2019-04-26T06:13:54.178Z,12.40
2019-04-26T06:17:20.914Z,12.40
2019-04-26T06:21:24.555Z,12.40
2019-04-26T06:24:33.803Z,12.40
2019-04-26T06:27:44.940Z,12.30
2019-04-26T06:30:20.273Z,12.20
2019-04-26T06:33:23.291Z,12.20
2019-04-26T06:35:57.195Z,12.20
2019-04-26T06:39:29.510Z,12.10
2019-04-26T06:42:48.971Z,12.10
2019-04-26T06:46:14.976Z,12.00
2019-04-26T06:49:19.872Z,12.00
2019-04-26T06:51:53.612Z,11.90
2019-04-26T06:54:32.652Z,11.80
2019-04-26T06:57:51.636Z,11.80
2019-04-26T07:00:27.439Z,11.80
2019-04-26T07:03:31.869Z,11.90
2019-04-26T07:06:02.585Z,12.00
2019-04-26T07:08:57.288Z,11.90
2019-04-26T07:12:07.200Z,11.90
2019-04-26T07:15:03.715Z,11.80
2019-04-26T07:18:17.486Z,11.80
2019-04-26T07:21:14.333Z,11.80
2019-04-26T07:24:13.588Z,11.80
2019-04-26T07:27:14.133Z,11.70
2019-04-26T07:30:09.758Z,11.70
2019-04-26T07:33:17.321Z,11.60
2019-04-26T07:36:29.175Z,11.60
2019-04-26T07:39:21.973Z,11.60
2019-04-26T07:42:51.494Z,11.40
2019-04-26T07:45:52.159Z,11.30
2019-04-26T07:48:35.395Z,11.20
2019-04-26T07:51:29.585Z,11.10
2019-04-26T07:54:36.082Z,11.00
2019-04-26T07:58:07.534Z,10.90
2019-04-26T08:00:46.347Z,10.90
2019-04-26T08:03:36.431Z,10.90
2019-04-26T08:06:15.831Z,11.00
2019-04-26T08:08:52.239Z,11.10
2019-04-26T08:11:29.665Z,11.10
2019-04-26T08:14:12.488Z,11.20
2019-04-26T08:17:10.410Z,11.20
2019-04-26T08:19:45.380Z,11.20
2019-04-26T08:22:21.750Z,11.30
2019-04-26T08:24:51.710Z,11.30
2019-04-26T08:27:24.915Z,11.30
2019-04-26T08:30:03.295Z,11.30
2019-04-26T08:32:36.120Z,11.40
2019-04-26T08:35:20.611Z,11.50
2019-04-26T08:37:52.922Z,11.50
2019-04-26T08:40:30.632Z,11.60
2019-04-26T08:43:18.315Z,11.60
2019-04-26T08:46:11.288Z,11.60
2019-04-26T08:49:13.045Z,11.70
2019-04-26T08:51:45.162Z,11.70
2019-04-26T08:54:20.842Z,11.70
2019-04-26T08:57:02.359Z,11.80
2019-04-26T08:59:35.717Z,11.90
2019-04-26T09:02:22.671Z,12.00
2019-04-26T09:05:11.441Z,12.10
2019-04-26T09:07:44.356Z,12.10
2019-04-26T09:10:16.382Z,12.10
2019-04-26T09:12:48.927Z,12.20
2019-04-26T09:15:24.598Z,12.20
2019-04-26T09:17:53.952Z,12.20
2019-04-26T09:20:29.648Z,12.20
2019-04-26T09:23:09.436Z,12.30
2019-04-26T09:25:42.128Z,12.50
2019-04-26T09:28:22.118Z,12.60
2019-04-26T09:31:15.367Z,12.70
2019-04-26T09:33:45.619Z,12.80
2019-04-26T09:36:14.959Z,12.90
2019-04-26T09:38:53.761Z,13.10
2019-04-26T09:41:26.592Z,13.10
2019-04-26T09:44:02.532Z,13.10
2019-04-26T09:46:52.746Z,13.10
2019-04-26T09:49:27.616Z,13.10
2019-04-26T09:51:57.283Z,13.10
2019-04-26T09:54:26.632Z,13.00
2019-04-26T09:56:55.888Z,12.90
2019-04-26T09:59:25.440Z,12.80
2019-04-26T10:01:59.188Z,12.80
2019-04-26T10:04:26.320Z,12.80
2019-04-26T10:06:59.396Z,12.80
2019-04-26T10:09:26.848Z,12.90
2019-04-26T10:12:01.039Z,12.90
2019-04-26T10:14:40.666Z,12.90
2019-04-26T10:17:23.021Z,12.90
2019-04-26T10:19:54.068Z,12.90
2019-04-26T10:22:25.050Z,12.90
2019-04-26T10:24:54.372Z,13.00
2019-04-26T10:27:23.983Z,13.00
2019-04-26T10:29:56.625Z,12.90
2019-04-26T10:32:26.440Z,13.00
2019-04-26T10:34:56.014Z,13.00
2019-04-26T10:37:25.516Z,13.10
2019-04-26T10:39:54.807Z,13.10
2019-04-26T10:42:24.183Z,13.00
2019-04-26T10:44:53.443Z,12.90
2019-04-26T10:47:22.970Z,12.90
2019-04-26T10:49:54.473Z,12.90
2019-04-26T10:52:38.425Z,12.80
2019-04-26T10:55:26.729Z,12.80
2019-04-26T10:57:59.897Z,12.60
2019-04-26T11:00:34.928Z,12.40
2019-04-26T11:03:05.859Z,12.50
2019-04-26T11:05:35.501Z,12.40
2019-04-26T11:08:05.119Z,12.40
2019-04-26T11:10:47.704Z,12.40
2019-04-26T11:13:07.133Z,12.40
2019-04-26T11:15:36.411Z,12.40
2019-04-26T11:18:07.800Z,12.60
2019-04-26T11:20:37.008Z,12.60
2019-04-26T11:23:08.138Z,12.70
2019-04-26T11:25:37.306Z,12.80
2019-04-26T11:28:07.170Z,12.90
2019-04-26T11:30:37.226Z,12.90
2019-04-26T11:33:07.240Z,12.90
2019-04-26T11:35:37.729Z,12.90
2019-04-26T11:38:07.049Z,12.80
2019-04-26T11:40:36.311Z,12.80
2019-04-26T11:43:05.938Z,12.80
2019-04-26T11:45:35.235Z,12.80
2019-04-26T11:48:04.759Z,12.80
2019-04-26T11:50:34.436Z,12.90
2019-04-26T11:53:06.192Z,13.00
2019-04-26T11:55:36.497Z,12.90
2019-04-26T11:58:05.771Z,13.00
2019-04-26T12:00:41.599Z,12.90
2019-04-26T12:03:10.915Z,13.00
2019-04-26T12:06:01.952Z,13.00
2019-04-26T12:08:37.027Z,13.00
2019-04-26T12:11:17.818Z,13.20
2019-04-26T12:13:37.782Z,13.20
2019-04-26T12:16:09.769Z,13.20
2019-04-26T12:18:44.078Z,13.30
2019-04-26T12:21:13.376Z,13.40
2019-04-26T12:23:42.873Z,13.50
2019-04-26T12:26:13.369Z,13.50
2019-04-26T12:28:42.601Z,13.40
2019-04-26T12:31:14.991Z,13.30
2019-04-26T12:33:44.862Z,13.30
2019-04-26T12:36:14.451Z,13.30
2019-04-26T12:38:43.839Z,13.30
2019-04-26T12:41:17.262Z,13.20
2019-04-26T12:43:45.592Z,13.20
2019-04-26T12:46:28.621Z,13.10
2019-04-26T12:48:57.786Z,13.20
2019-04-26T12:51:27.415Z,13.20
2019-04-26T12:53:56.603Z,13.20
2019-04-26T12:56:31.257Z,13.20
2019-04-26T12:58:59.139Z,13.30
2019-04-26T13:01:28.352Z,13.40
2019-04-26T13:04:05.862Z,13.50
2019-04-26T13:06:41.125Z,13.70
2019-04-26T13:09:14.887Z,13.80
2019-04-26T13:11:57.811Z,13.90
2019-04-26T13:14:46.033Z,14.10
2019-04-26T13:17:18.185Z,14.30
2019-04-26T13:19:49.528Z,14.40
2019-04-26T13:22:19.106Z,14.50
2019-04-26T13:24:48.664Z,14.50
2019-04-26T13:27:18.576Z,14.60
2019-04-26T13:29:48.372Z,14.40
2019-04-26T13:32:19.100Z,14.30
2019-04-26T13:34:48.448Z,14.20
2019-04-26T13:37:17.665Z,13.90
2019-04-26T13:39:47.035Z,13.60
2019-04-26T13:42:17.459Z,13.40
2019-04-26T13:45:02.270Z,13.40
2019-04-26T13:47:49.111Z,13.40
2019-04-26T13:50:35.170Z,13.50
2019-04-26T13:53:04.575Z,13.50
2019-04-26T13:55:33.940Z,13.80
2019-04-26T13:58:03.506Z,14.00
2019-04-26T14:00:33.253Z,14.60
2019-04-26T14:03:02.788Z,15.50
2019-04-26T14:05:32.056Z,16.60
2019-04-26T14:08:01.588Z,17.70
2019-04-26T14:10:31.968Z,18.00
2019-04-26T14:13:01.283Z,18.30
2019-04-26T14:15:30.728Z,18.60
2019-04-26T14:18:00.272Z,18.60
2019-04-26T14:20:31.028Z,18.60
2019-04-26T14:23:11.371Z,18.70
2019-04-26T14:26:01.182Z,18.90
2019-04-26T14:28:30.152Z,19.10
2019-04-26T14:30:59.447Z,18.90
2019-04-26T14:33:30.881Z,18.30
2019-04-26T14:35:59.740Z,17.50
2019-04-26T14:38:39.364Z,16.50
2019-04-26T14:41:04.045Z,16.00
2019-04-26T14:43:40.622Z,15.80
2019-04-26T14:46:02.864Z,15.50
2019-04-26T14:48:36.064Z,15.10
2019-04-26T14:51:08.173Z,14.90
2019-04-26T14:53:36.614Z,14.50
2019-04-26T14:56:09.424Z,14.30
2019-04-26T14:58:38.639Z,14.10
2019-04-26T15:01:10.100Z,13.90
2019-04-26T15:03:46.810Z,13.80
2019-04-26T15:06:20.369Z,13.80
2019-04-26T15:08:57.344Z,13.70
2019-04-26T15:11:28.173Z,13.60
2019-04-26T15:14:03.356Z,13.50
2019-04-26T15:16:41.426Z,13.50
2019-04-26T15:19:14.871Z,13.50
2019-04-26T15:21:58.556Z,13.40
2019-04-26T15:24:35.121Z,13.40
2019-04-26T15:27:07.793Z,13.30
2019-04-26T15:29:38.527Z,13.30
2019-04-26T15:32:09.482Z,13.30
2019-04-26T15:34:39.593Z,13.20
2019-04-26T15:37:10.924Z,13.10
2019-04-26T15:39:58.421Z,13.10
2019-04-26T15:43:14.324Z,13.00
2019-04-26T15:45:52.544Z,13.00
2019-04-26T15:48:58.586Z,12.90
2019-04-26T15:51:29.936Z,12.90
2019-04-26T15:53:59.992Z,13.00
2019-04-26T15:56:32.089Z,13.00
2019-04-26T15:59:02.558Z,13.00
2019-04-26T16:01:34.713Z,13.00
2019-04-26T16:04:06.288Z,13.10
2019-04-26T16:06:37.493Z,13.00
2019-04-26T16:09:07.566Z,13.00
2019-04-26T16:11:37.566Z,13.00
2019-04-26T16:14:07.228Z,13.00
2019-04-26T16:16:39.182Z,13.00
2019-04-26T16:19:09.139Z,13.00
2019-04-26T16:24:28.957Z,13.10
2019-04-26T16:26:58.489Z,13.10
2019-04-26T16:29:46.852Z,13.10
2019-04-26T16:32:37.112Z,13.10
2019-04-26T16:35:07.583Z,13.20
2019-04-26T16:37:37.204Z,13.30
2019-04-26T16:40:13.791Z,13.30
2019-04-26T16:42:41.127Z,13.40
2019-04-26T16:45:12.320Z,13.50
2019-04-26T16:47:47.309Z,13.50
2019-04-26T16:50:14.895Z,13.60
2019-04-26T16:53:02.524Z,13.60
2019-04-26T16:55:35.486Z,13.60
2019-04-26T16:58:04.463Z,13.70
2019-04-26T17:00:50.808Z,13.70
2019-04-26T17:03:07.915Z,13.80
2019-04-26T17:05:47.128Z,13.80
2019-04-26T17:08:10.202Z,13.80
2019-04-26T17:33:54.421Z,13.80
2019-04-26T17:36:23.759Z,13.80
2019-04-26T17:38:55.126Z,13.80
2019-04-26T17:41:24.550Z,13.80
2019-04-26T17:44:06.234Z,13.80
2019-04-26T17:46:26.236Z,13.70
2019-04-26T17:48:55.524Z,13.60
2019-04-26T17:51:25.285Z,13.50
2019-04-26T17:54:18.912Z,13.50
2019-04-26T17:56:26.107Z,13.40
2019-04-26T17:58:56.804Z,13.30
2019-04-26T18:01:41.870Z,13.20
2019-04-26T18:03:57.075Z,13.10
2019-04-26T18:06:29.705Z,12.90
2019-04-26T18:08:57.760Z,12.80
2019-04-26T18:11:27.074Z,12.80
2019-04-26T18:13:56.632Z,12.70
2019-04-26T18:16:32.917Z,12.50
2019-04-26T18:19:38.807Z,12.40
2019-04-26T18:22:24.075Z,12.40
2019-04-26T18:24:54.018Z,12.30
2019-04-26T18:27:23.982Z,12.20
2019-04-26T18:29:53.776Z,12.20
2019-04-26T18:32:24.485Z,12.10
2019-04-26T18:34:53.788Z,12.10
2019-04-26T18:37:23.169Z,12.10
2019-04-26T18:39:53.467Z,12.00
2019-04-26T18:42:27.081Z,12.00
2019-04-26T18:44:59.572Z,11.90
2019-04-26T18:47:33.458Z,11.80
2019-04-26T18:50:02.749Z,11.70
2019-04-26T18:52:34.268Z,11.70
2019-04-26T18:55:13.329Z,11.60
2019-04-26T18:57:46.918Z,11.60
2019-04-26T19:00:26.503Z,11.60
2019-04-26T19:02:55.385Z,11.60
2019-04-26T19:05:29.728Z,11.60
2019-04-26T19:07:56.113Z,11.60
2019-04-26T19:10:34.213Z,11.50
2019-04-26T19:13:25.541Z,11.50
2019-04-26T19:16:10.482Z,11.50
2019-04-26T19:18:51.824Z,11.40
2019-04-26T19:21:39.321Z,11.40
2019-04-26T19:24:17.689Z,11.30
2019-04-26T19:26:44.097Z,11.30
2019-04-26T19:29:18.209Z,11.30
2019-04-26T19:31:44.513Z,11.30
2019-04-26T19:34:14.090Z,11.20
2019-04-26T19:36:43.750Z,11.20
2019-04-26T19:39:16.180Z,11.20
2019-04-26T19:41:57.715Z,11.20
2019-04-26T19:44:24.395Z,11.20
2019-04-26T19:47:06.550Z,11.10
2019-04-26T19:49:52.367Z,11.10
2019-04-26T19:52:48.480Z,11.10
2019-04-26T19:55:35.843Z,11.00
2019-04-26T19:58:09.680Z,11.00
2019-04-26T20:00:42.875Z,11.00
2019-04-26T20:03:13.454Z,11.00
2019-04-26T20:05:44.002Z,10.90
2019-04-26T20:08:12.122Z,10.90
2019-04-26T20:10:45.422Z,10.90
2019-04-26T20:13:16.226Z,10.90
2019-04-26T20:15:45.513Z,10.90
2019-04-26T20:18:17.995Z,10.90
2019-04-26T20:20:47.331Z,10.80
2019-04-26T20:23:19.326Z,10.80
2019-04-26T20:25:47.572Z,10.70
2019-04-26T20:28:16.867Z,10.70
2019-04-26T20:31:12.680Z,10.70
2019-04-26T20:33:42.490Z,10.70
2019-04-26T20:36:14.170Z,10.70
2019-04-26T20:38:47.446Z,10.70
2019-04-26T20:41:15.409Z,10.70
2019-04-26T20:43:56.443Z,10.70
2019-04-26T20:46:16.054Z,10.70
2019-04-26T20:48:45.352Z,10.60
2019-04-26T20:51:17.916Z,10.60
2019-04-26T20:53:46.133Z,10.60
2019-04-26T20:56:18.353Z,10.60
2019-04-26T20:58:47.373Z,10.60
2019-04-26T21:01:16.711Z,10.70
2019-04-26T21:03:46.358Z,10.70
2019-04-26T21:06:15.768Z,10.70
2019-04-26T21:08:45.430Z,10.70
2019-04-26T21:11:14.949Z,10.70
2019-04-26T21:13:44.262Z,10.70
2019-04-26T21:16:15.491Z,10.80
2019-04-26T21:18:44.658Z,10.80
2019-04-26T21:21:15.951Z,10.80
2019-04-26T21:23:46.788Z,10.90
2019-04-26T21:26:22.723Z,11.00
2019-04-26T21:29:13.372Z,11.00
2019-04-26T21:31:59.479Z,10.90
2019-04-26T21:34:34.458Z,10.80
2019-04-26T21:37:23.578Z,10.80
2019-04-26T21:40:23.228Z,10.80
2019-04-26T21:42:53.827Z,10.70
2019-04-26T21:45:28.412Z,10.70
2019-04-26T21:47:54.611Z,10.70
2019-04-26T21:50:24.294Z,10.70
2019-04-26T21:52:54.155Z,10.70
2019-04-26T21:55:26.575Z,10.80
2019-04-26T21:57:55.201Z,10.80
2019-04-26T22:00:43.663Z,10.80
2019-04-26T22:03:31.290Z,10.80
2019-04-26T22:06:00.693Z,10.80
2019-04-26T22:08:32.998Z,10.80
2019-04-26T22:11:04.822Z,10.80
2019-04-26T22:14:08.331Z,10.80
2019-04-26T22:17:13.407Z,10.80
2019-04-26T22:20:14.441Z,10.80
2019-04-26T22:23:04.113Z,10.80
2019-04-26T22:25:35.561Z,10.80
2019-04-26T22:28:04.852Z,10.80
2019-04-26T22:30:34.600Z,10.80
2019-04-26T22:33:04.837Z,10.80
2019-04-26T22:35:34.139Z,10.80
2019-04-26T22:38:04.004Z,10.70
2019-04-26T22:40:33.608Z,10.60
2019-04-26T22:43:22.963Z,10.60
2019-04-26T22:45:59.226Z,10.60
2019-04-26T22:48:33.972Z,10.50
2019-04-26T22:51:04.742Z,10.40
2019-04-26T22:53:34.127Z,10.20
2019-04-26T22:56:05.032Z,10.20
2019-04-26T22:58:34.723Z,10.10
2019-04-26T23:01:06.234Z,10.10
2019-04-26T23:03:36.619Z,10.00
2019-04-26T23:06:07.825Z,9.90
2019-04-26T23:08:38.468Z,9.90
2019-04-26T23:11:09.358Z,9.90
2019-04-26T23:14:06.469Z,9.90
2019-04-26T23:16:45.686Z,9.90
2019-04-26T23:19:31.332Z,9.90
2019-04-26T23:22:00.676Z,9.90
2019-04-26T23:24:30.646Z,9.90
2019-04-26T23:26:59.937Z,9.90
2019-04-26T23:29:29.314Z,9.90
2019-04-26T23:31:58.610Z,9.90
2019-04-26T23:34:27.836Z,9.90
2019-04-26T23:36:57.216Z,9.80
2019-04-26T23:39:26.496Z,9.80
2019-04-26T23:41:55.739Z,9.80
2019-04-26T23:44:25.011Z,9.80
2019-04-26T23:47:00.834Z,9.70
2019-04-26T23:49:25.405Z,9.70
2019-04-26T23:51:55.126Z,9.70
2019-04-26T23:54:28.187Z,9.70
2019-04-26T23:56:57.864Z,9.70
2019-04-26T23:59:26.427Z,9.60
